sensor_id;sensor_type;location;lat;lon;timestamp;P1;durP1;ratioP1;P2;durP2;ratioP2
33170;SDS011;19535;50.672;4.206;2024-02-26T00:01:50;35.38;;;31.80;;
33170;SDS011;19535;50.672;4.206;2024-02-26T00:04:17;36.28;;;32.70;;
33170;SDS011;19535;50.672;4.206;2024-02-26T00:06:44;35.45;;;31.85;;
33170;SDS011;19535;50.672;4.206;2024-02-26T00:09:11;34.88;;;31.55;;
33170;SDS011;19535;50.672;4.206;2024-02-26T00:11:38;32.85;;;29.45;;
33170;SDS011;19535;50.672;4.206;2024-02-26T00:14:08;33.47;;;30.08;;
33170;SDS011;19535;50.672;4.206;2024-02-26T00:16:35;32.08;;;29.00;;
33170;SDS011;19535;50.672;4.206;2024-02-26T00:19:02;31.88;;;28.80;;
33170;SDS011;19535;50.672;4.206;2024-02-26T00:21:29;29.38;;;26.80;;
33170;SDS011;19535;50.672;4.206;2024-02-26T00:23:56;28.00;;;25.50;;
33170;SDS011;19535;50.672;4.206;2024-02-26T00:26:23;29.48;;;26.67;;
33170;SDS011;19535;50.672;4.206;2024-02-26T00:28:50;28.58;;;25.90;;
33170;SDS011;19535;50.672;4.206;2024-02-26T00:31:17;26.60;;;24.08;;
33170;SDS011;19535;50.672;4.206;2024-02-26T00:33:44;26.40;;;24.00;;
33170;SDS011;19535;50.672;4.206;2024-02-26T00:36:11;25.35;;;23.08;;
33170;SDS011;19535;50.672;4.206;2024-02-26T00:38:38;25.05;;;22.85;;
33170;SDS011;19535;50.672;4.206;2024-02-26T00:41:06;24.00;;;21.83;;
33170;SDS011;19535;50.672;4.206;2024-02-26T00:43:33;24.27;;;21.95;;
33170;SDS011;19535;50.672;4.206;2024-02-26T00:46:00;24.75;;;22.15;;
33170;SDS011;19535;50.672;4.206;2024-02-26T00:48:28;23.20;;;21.00;;
33170;SDS011;19535;50.672;4.206;2024-02-26T00:50:55;22.88;;;20.83;;
33170;SDS011;19535;50.672;4.206;2024-02-26T00:53:22;22.73;;;20.67;;
33170;SDS011;19535;50.672;4.206;2024-02-26T00:55:51;23.10;;;20.95;;
33170;SDS011;19535;50.672;4.206;2024-02-26T00:58:18;20.70;;;18.75;;
33170;SDS011;19535;50.672;4.206;2024-02-26T01:00:45;20.95;;;19.10;;
33170;SDS011;19535;50.672;4.206;2024-02-26T01:03:12;20.13;;;18.42;;
33170;SDS011;19535;50.672;4.206;2024-02-26T01:05:39;19.13;;;17.52;;
33170;SDS011;19535;50.672;4.206;2024-02-26T01:08:06;19.75;;;17.85;;
33170;SDS011;19535;50.672;4.206;2024-02-26T01:10:33;18.95;;;17.27;;
33170;SDS011;19535;50.672;4.206;2024-02-26T01:13:00;18.42;;;16.73;;
33170;SDS011;19535;50.672;4.206;2024-02-26T01:15:27;18.85;;;17.15;;
33170;SDS011;19535;50.672;4.206;2024-02-26T01:17:54;17.80;;;16.20;;
33170;SDS011;19535;50.672;4.206;2024-02-26T01:20:21;17.15;;;15.40;;
33170;SDS011;19535;50.672;4.206;2024-02-26T01:22:48;17.50;;;15.90;;
33170;SDS011;19535;50.672;4.206;2024-02-26T01:25:15;16.05;;;14.65;;
33170;SDS011;19535;50.672;4.206;2024-02-26T01:27:42;16.10;;;14.73;;
33170;SDS011;19535;50.672;4.206;2024-02-26T01:30:10;16.27;;;14.88;;
33170;SDS011;19535;50.672;4.206;2024-02-26T01:32:37;15.80;;;14.45;;
33170;SDS011;19535;50.672;4.206;2024-02-26T01:35:04;15.20;;;13.80;;
33170;SDS011;19535;50.672;4.206;2024-02-26T01:37:36;14.90;;;13.60;;
33170;SDS011;19535;50.672;4.206;2024-02-26T01:40:03;15.23;;;13.93;;
33170;SDS011;19535;50.672;4.206;2024-02-26T01:42:32;14.27;;;12.97;;
33170;SDS011;19535;50.672;4.206;2024-02-26T01:44:59;13.73;;;12.52;;
33170;SDS011;19535;50.672;4.206;2024-02-26T01:47:26;13.77;;;12.57;;
33170;SDS011;19535;50.672;4.206;2024-02-26T01:49:54;14.20;;;12.90;;
33170;SDS011;19535;50.672;4.206;2024-02-26T01:52:21;13.38;;;12.07;;
33170;SDS011;19535;50.672;4.206;2024-02-26T01:54:48;11.88;;;10.77;;
33170;SDS011;19535;50.672;4.206;2024-02-26T01:57:15;12.75;;;11.73;;
33170;SDS011;19535;50.672;4.206;2024-02-26T01:59:43;11.45;;;10.45;;
33170;SDS011;19535;50.672;4.206;2024-02-26T02:02:10;11.82;;;10.82;;
33170;SDS011;19535;50.672;4.206;2024-02-26T02:04:38;11.35;;;10.35;;
33170;SDS011;19535;50.672;4.206;2024-02-26T02:07:06;11.77;;;10.68;;
33170;SDS011;19535;50.672;4.206;2024-02-26T02:09:33;11.80;;;10.75;;
33170;SDS011;19535;50.672;4.206;2024-02-26T02:12:00;10.63;;;9.73;;
33170;SDS011;19535;50.672;4.206;2024-02-26T02:14:27;9.98;;;9.07;;
33170;SDS011;19535;50.672;4.206;2024-02-26T02:16:54;10.80;;;9.90;;
33170;SDS011;19535;50.672;4.206;2024-02-26T02:19:21;11.05;;;10.05;;
33170;SDS011;19535;50.672;4.206;2024-02-26T02:21:48;10.32;;;9.43;;
33170;SDS011;19535;50.672;4.206;2024-02-26T02:24:15;10.38;;;9.48;;
33170;SDS011;19535;50.672;4.206;2024-02-26T02:26:42;9.60;;;8.80;;
33170;SDS011;19535;50.672;4.206;2024-02-26T02:29:09;9.68;;;8.85;;
33170;SDS011;19535;50.672;4.206;2024-02-26T02:31:38;9.57;;;8.77;;
33170;SDS011;19535;50.672;4.206;2024-02-26T02:34:05;9.25;;;8.52;;
33170;SDS011;19535;50.672;4.206;2024-02-26T02:36:32;9.40;;;8.60;;
33170;SDS011;19535;50.672;4.206;2024-02-26T02:38:59;8.95;;;8.15;;
33170;SDS011;19535;50.672;4.206;2024-02-26T02:41:26;8.68;;;7.97;;
33170;SDS011;19535;50.672;4.206;2024-02-26T02:43:56;8.43;;;7.80;;
33170;SDS011;19535;50.672;4.206;2024-02-26T02:46:23;8.45;;;7.75;;
33170;SDS011;19535;50.672;4.206;2024-02-26T02:48:50;8.77;;;7.97;;
33170;SDS011;19535;50.672;4.206;2024-02-26T02:51:17;7.60;;;7.00;;
33170;SDS011;19535;50.672;4.206;2024-02-26T02:53:44;8.52;;;7.63;;
33170;SDS011;19535;50.672;4.206;2024-02-26T02:56:11;7.10;;;6.50;;
33170;SDS011;19535;50.672;4.206;2024-02-26T02:58:38;7.10;;;6.50;;
33170;SDS011;19535;50.672;4.206;2024-02-26T03:01:06;7.30;;;6.70;;
33170;SDS011;19535;50.672;4.206;2024-02-26T03:03:33;6.88;;;6.28;;
33170;SDS011;19535;50.672;4.206;2024-02-26T03:06:00;7.50;;;6.90;;
33170;SDS011;19535;50.672;4.206;2024-02-26T03:08:27;6.72;;;6.18;;
33170;SDS011;19535;50.672;4.206;2024-02-26T03:10:54;7.70;;;6.50;;
33170;SDS011;19535;50.672;4.206;2024-02-26T03:13:21;6.43;;;5.90;;
33170;SDS011;19535;50.672;4.206;2024-02-26T03:15:48;6.68;;;6.18;;
33170;SDS011;19535;50.672;4.206;2024-02-26T03:18:15;6.35;;;5.85;;
33170;SDS011;19535;50.672;4.206;2024-02-26T03:20:43;7.40;;;5.95;;
33170;SDS011;19535;50.672;4.206;2024-02-26T03:23:10;6.18;;;5.68;;
33170;SDS011;19535;50.672;4.206;2024-02-26T03:25:39;6.13;;;5.63;;
33170;SDS011;19535;50.672;4.206;2024-02-26T03:28:06;6.43;;;5.82;;
33170;SDS011;19535;50.672;4.206;2024-02-26T03:30:33;5.97;;;5.47;;
33170;SDS011;19535;50.672;4.206;2024-02-26T03:33:01;5.68;;;5.20;;
33170;SDS011;19535;50.672;4.206;2024-02-26T03:35:28;4.93;;;4.53;;
33170;SDS011;19535;50.672;4.206;2024-02-26T03:37:55;5.50;;;5.05;;
33170;SDS011;19535;50.672;4.206;2024-02-26T03:40:22;5.30;;;4.90;;
33170;SDS011;19535;50.672;4.206;2024-02-26T03:42:49;5.07;;;4.68;;
33170;SDS011;19535;50.672;4.206;2024-02-26T03:45:16;5.07;;;4.68;;
33170;SDS011;19535;50.672;4.206;2024-02-26T03:47:43;4.40;;;4.10;;
33170;SDS011;19535;50.672;4.206;2024-02-26T03:50:10;4.68;;;4.30;;
33170;SDS011;19535;50.672;4.206;2024-02-26T03:52:37;4.82;;;4.43;;
33170;SDS011;19535;50.672;4.206;2024-02-26T03:55:04;5.10;;;4.63;;
33170;SDS011;19535;50.672;4.206;2024-02-26T03:57:31;4.63;;;4.22;;
33170;SDS011;19535;50.672;4.206;2024-02-26T03:59:58;4.55;;;4.22;;
33170;SDS011;19535;50.672;4.206;2024-02-26T04:02:25;4.38;;;3.97;;
33170;SDS011;19535;50.672;4.206;2024-02-26T04:04:53;4.28;;;3.92;;
33170;SDS011;19535;50.672;4.206;2024-02-26T04:07:20;4.30;;;3.90;;
33170;SDS011;19535;50.672;4.206;2024-02-26T04:09:47;4.47;;;4.07;;
33170;SDS011;19535;50.672;4.206;2024-02-26T04:12:14;3.97;;;3.40;;
33170;SDS011;19535;50.672;4.206;2024-02-26T04:14:42;3.72;;;3.42;;
33170;SDS011;19535;50.672;4.206;2024-02-26T04:17:09;3.65;;;3.35;;
33170;SDS011;19535;50.672;4.206;2024-02-26T04:19:37;3.85;;;3.55;;
33170;SDS011;19535;50.672;4.206;2024-02-26T04:22:04;3.95;;;3.65;;
33170;SDS011;19535;50.672;4.206;2024-02-26T04:24:31;3.83;;;3.53;;
33170;SDS011;19535;50.672;4.206;2024-02-26T04:26:58;3.50;;;3.25;;
33170;SDS011;19535;50.672;4.206;2024-02-26T04:29:25;3.40;;;3.15;;
33170;SDS011;19535;50.672;4.206;2024-02-26T04:31:52;3.38;;;3.17;;
33170;SDS011;19535;50.672;4.206;2024-02-26T04:34:19;3.97;;;3.00;;
33170;SDS011;19535;50.672;4.206;2024-02-26T04:36:46;3.67;;;3.38;;
33170;SDS011;19535;50.672;4.206;2024-02-26T04:39:14;3.58;;;3.13;;
33170;SDS011;19535;50.672;4.206;2024-02-26T04:41:41;3.10;;;2.90;;
33170;SDS011;19535;50.672;4.206;2024-02-26T04:44:08;3.53;;;3.22;;
33170;SDS011;19535;50.672;4.206;2024-02-26T04:46:35;2.83;;;2.63;;
33170;SDS011;19535;50.672;4.206;2024-02-26T04:49:02;2.63;;;2.42;;
33170;SDS011;19535;50.672;4.206;2024-02-26T04:51:29;2.85;;;2.65;;
33170;SDS011;19535;50.672;4.206;2024-02-26T04:53:56;3.22;;;3.00;;
33170;SDS011;19535;50.672;4.206;2024-02-26T04:56:24;2.67;;;2.50;;
33170;SDS011;19535;50.672;4.206;2024-02-26T04:58:51;2.67;;;2.47;;
33170;SDS011;19535;50.672;4.206;2024-02-26T05:01:18;2.58;;;2.38;;
33170;SDS011;19535;50.672;4.206;2024-02-26T05:03:46;2.88;;;2.40;;
33170;SDS011;19535;50.672;4.206;2024-02-26T05:06:13;2.50;;;2.35;;
33170;SDS011;19535;50.672;4.206;2024-02-26T05:08:40;2.50;;;2.30;;
33170;SDS011;19535;50.672;4.206;2024-02-26T05:11:07;2.92;;;2.65;;
33170;SDS011;19535;50.672;4.206;2024-02-26T05:13:34;2.88;;;2.50;;
33170;SDS011;19535;50.672;4.206;2024-02-26T05:16:01;2.33;;;2.13;;
33170;SDS011;19535;50.672;4.206;2024-02-26T05:18:28;2.47;;;2.28;;
33170;SDS011;19535;50.672;4.206;2024-02-26T05:20:55;2.35;;;2.17;;
33170;SDS011;19535;50.672;4.206;2024-02-26T05:23:22;2.22;;;2.03;;
33170;SDS011;19535;50.672;4.206;2024-02-26T05:25:49;2.40;;;2.20;;
33170;SDS011;19535;50.672;4.206;2024-02-26T05:28:16;2.50;;;2.30;;
33170;SDS011;19535;50.672;4.206;2024-02-26T05:30:47;2.20;;;2.00;;
33170;SDS011;19535;50.672;4.206;2024-02-26T05:33:14;2.40;;;2.20;;
33170;SDS011;19535;50.672;4.206;2024-02-26T05:35:44;2.38;;;2.17;;
33170;SDS011;19535;50.672;4.206;2024-02-26T05:38:11;2.08;;;1.90;;
33170;SDS011;19535;50.672;4.206;2024-02-26T05:40:38;1.98;;;1.88;;
33170;SDS011;19535;50.672;4.206;2024-02-26T05:43:05;2.35;;;2.15;;
33170;SDS011;19535;50.672;4.206;2024-02-26T05:45:32;1.92;;;1.83;;
33170;SDS011;19535;50.672;4.206;2024-02-26T05:47:59;1.70;;;1.60;;
33170;SDS011;19535;50.672;4.206;2024-02-26T05:50:27;2.22;;;2.03;;
33170;SDS011;19535;50.672;4.206;2024-02-26T05:52:54;1.83;;;1.73;;
33170;SDS011;19535;50.672;4.206;2024-02-26T05:55:21;1.80;;;1.70;;
33170;SDS011;19535;50.672;4.206;2024-02-26T05:57:48;1.60;;;1.50;;
33170;SDS011;19535;50.672;4.206;2024-02-26T06:00:16;1.80;;;1.70;;
33170;SDS011;19535;50.672;4.206;2024-02-26T06:02:43;2.05;;;1.73;;
33170;SDS011;19535;50.672;4.206;2024-02-26T06:05:10;1.60;;;1.50;;
33170;SDS011;19535;50.672;4.206;2024-02-26T06:07:37;1.60;;;1.50;;
33170;SDS011;19535;50.672;4.206;2024-02-26T06:10:04;1.60;;;1.50;;
33170;SDS011;19535;50.672;4.206;2024-02-26T06:12:34;1.67;;;1.58;;
33170;SDS011;19535;50.672;4.206;2024-02-26T06:15:02;1.70;;;1.60;;
33170;SDS011;19535;50.672;4.206;2024-02-26T06:17:30;1.80;;;1.70;;
33170;SDS011;19535;50.672;4.206;2024-02-26T06:19:58;1.77;;;1.40;;
33170;SDS011;19535;50.672;4.206;2024-02-26T06:22:26;1.58;;;1.48;;
33170;SDS011;19535;50.672;4.206;2024-02-26T06:24:53;1.40;;;1.30;;
33170;SDS011;19535;50.672;4.206;2024-02-26T06:27:20;1.42;;;1.33;;
33170;SDS011;19535;50.672;4.206;2024-02-26T06:29:48;1.95;;;1.50;;
33170;SDS011;19535;50.672;4.206;2024-02-26T06:32:15;1.60;;;1.50;;
33170;SDS011;19535;50.672;4.206;2024-02-26T06:34:42;1.33;;;1.23;;
33170;SDS011;19535;50.672;4.206;2024-02-26T06:37:09;1.27;;;1.17;;
33170;SDS011;19535;50.672;4.206;2024-02-26T06:39:36;1.58;;;1.23;;
33170;SDS011;19535;50.672;4.206;2024-02-26T06:42:05;1.33;;;1.23;;
33170;SDS011;19535;50.672;4.206;2024-02-26T06:44:32;1.65;;;1.45;;
33170;SDS011;19535;50.672;4.206;2024-02-26T06:47:00;1.52;;;1.42;;
33170;SDS011;19535;50.672;4.206;2024-02-26T06:49:27;1.20;;;1.10;;
33170;SDS011;19535;50.672;4.206;2024-02-26T06:51:55;1.27;;;1.17;;
33170;SDS011;19535;50.672;4.206;2024-02-26T06:54:22;1.50;;;1.30;;
33170;SDS011;19535;50.672;4.206;2024-02-26T06:56:49;1.52;;;1.42;;
33170;SDS011;19535;50.672;4.206;2024-02-26T06:59:16;1.35;;;1.25;;
33170;SDS011;19535;50.672;4.206;2024-02-26T07:01:43;1.35;;;1.20;;
33170;SDS011;19535;50.672;4.206;2024-02-26T07:04:10;1.42;;;1.10;;
33170;SDS011;19535;50.672;4.206;2024-02-26T07:06:37;1.02;;;1.02;;
33170;SDS011;19535;50.672;4.206;2024-02-26T07:09:05;0.90;;;0.90;;
33170;SDS011;19535;50.672;4.206;2024-02-26T07:11:32;1.02;;;1.02;;
33170;SDS011;19535;50.672;4.206;2024-02-26T07:13:59;0.85;;;0.85;;
33170;SDS011;19535;50.672;4.206;2024-02-26T07:16:27;1.05;;;1.00;;
33170;SDS011;19535;50.672;4.206;2024-02-26T07:18:54;0.95;;;0.93;;
33170;SDS011;19535;50.672;4.206;2024-02-26T07:21:21;0.90;;;0.90;;
33170;SDS011;19535;50.672;4.206;2024-02-26T07:23:48;1.55;;;1.00;;
33170;SDS011;19535;50.672;4.206;2024-02-26T07:26:15;1.27;;;1.17;;
33170;SDS011;19535;50.672;4.206;2024-02-26T07:28:45;1.05;;;1.00;;
33170;SDS011;19535;50.672;4.206;2024-02-26T07:31:12;1.27;;;1.20;;
33170;SDS011;19535;50.672;4.206;2024-02-26T07:33:39;2.55;;;1.33;;
33170;SDS011;19535;50.672;4.206;2024-02-26T07:36:06;1.58;;;1.30;;
33170;SDS011;19535;50.672;4.206;2024-02-26T07:38:33;2.63;;;1.00;;
33170;SDS011;19535;50.672;4.206;2024-02-26T07:41:09;13.77;;;1.42;;
33170;SDS011;19535;50.672;4.206;2024-02-26T07:43:36;1.40;;;1.30;;
33170;SDS011;19535;50.672;4.206;2024-02-26T07:46:03;2.33;;;1.10;;
33170;SDS011;19535;50.672;4.206;2024-02-26T07:48:30;2.42;;;1.30;;
33170;SDS011;19535;50.672;4.206;2024-02-26T07:50:57;1.25;;;1.08;;
33170;SDS011;19535;50.672;4.206;2024-02-26T07:53:26;1.60;;;1.20;;
33170;SDS011;19535;50.672;4.206;2024-02-26T07:55:53;2.80;;;1.20;;
33170;SDS011;19535;50.672;4.206;2024-02-26T07:58:20;1.60;;;1.50;;
33170;SDS011;19535;50.672;4.206;2024-02-26T08:00:48;2.05;;;1.30;;
33170;SDS011;19535;50.672;4.206;2024-02-26T08:03:15;1.23;;;1.13;;
33170;SDS011;19535;50.672;4.206;2024-02-26T08:05:42;2.15;;;1.13;;
33170;SDS011;19535;50.672;4.206;2024-02-26T08:08:10;2.08;;;1.13;;
33170;SDS011;19535;50.672;4.206;2024-02-26T08:10:37;2.03;;;1.30;;
33170;SDS011;19535;50.672;4.206;2024-02-26T08:13:04;1.30;;;0.98;;
33170;SDS011;19535;50.672;4.206;2024-02-26T08:18:01;1.73;;;1.08;;
33170;SDS011;19535;50.672;4.206;2024-02-26T08:20:30;1.88;;;1.30;;
33170;SDS011;19535;50.672;4.206;2024-02-26T08:22:57;1.42;;;1.17;;
33170;SDS011;19535;50.672;4.206;2024-02-26T08:25:24;1.65;;;1.20;;
33170;SDS011;19535;50.672;4.206;2024-02-26T08:27:52;2.10;;;1.25;;
33170;SDS011;19535;50.672;4.206;2024-02-26T08:30:19;1.50;;;1.10;;
33170;SDS011;19535;50.672;4.206;2024-02-26T08:32:47;1.77;;;1.10;;
33170;SDS011;19535;50.672;4.206;2024-02-26T08:35:18;3.38;;;1.20;;
33170;SDS011;19535;50.672;4.206;2024-02-26T08:37:45;6.32;;;1.52;;
33170;SDS011;19535;50.672;4.206;2024-02-26T08:40:13;1.67;;;1.15;;
33170;SDS011;19535;50.672;4.206;2024-02-26T08:42:41;1.95;;;1.30;;
33170;SDS011;19535;50.672;4.206;2024-02-26T08:45:08;2.13;;;0.98;;
33170;SDS011;19535;50.672;4.206;2024-02-26T08:47:35;1.10;;;0.90;;
33170;SDS011;19535;50.672;4.206;2024-02-26T08:50:03;3.67;;;1.10;;
33170;SDS011;19535;50.672;4.206;2024-02-26T08:52:31;1.15;;;0.95;;
33170;SDS011;19535;50.672;4.206;2024-02-26T08:54:58;4.30;;;1.35;;
33170;SDS011;19535;50.672;4.206;2024-02-26T08:57:25;1.15;;;1.05;;
33170;SDS011;19535;50.672;4.206;2024-02-26T08:59:54;1.48;;;1.30;;
33170;SDS011;19535;50.672;4.206;2024-02-26T09:02:21;1.13;;;1.00;;
33170;SDS011;19535;50.672;4.206;2024-02-26T09:04:48;2.90;;;1.20;;
33170;SDS011;19535;50.672;4.206;2024-02-26T09:07:17;1.30;;;1.20;;
33170;SDS011;19535;50.672;4.206;2024-02-26T09:09:44;3.22;;;1.30;;
33170;SDS011;19535;50.672;4.206;2024-02-26T09:12:11;2.83;;;1.48;;
33170;SDS011;19535;50.672;4.206;2024-02-26T09:14:38;1.65;;;1.30;;
33170;SDS011;19535;50.672;4.206;2024-02-26T09:17:05;3.33;;;1.42;;
33170;SDS011;19535;50.672;4.206;2024-02-26T09:19:34;1.42;;;1.05;;
33170;SDS011;19535;50.672;4.206;2024-02-26T09:22:01;4.18;;;1.40;;
33170;SDS011;19535;50.672;4.206;2024-02-26T09:24:28;4.57;;;1.60;;
33170;SDS011;19535;50.672;4.206;2024-02-26T09:26:55;8.43;;;1.75;;
33170;SDS011;19535;50.672;4.206;2024-02-26T09:29:22;5.05;;;1.85;;
33170;SDS011;19535;50.672;4.206;2024-02-26T09:31:49;6.85;;;1.73;;
33170;SDS011;19535;50.672;4.206;2024-02-26T09:34:16;3.17;;;1.70;;
33170;SDS011;19535;50.672;4.206;2024-02-26T09:36:43;2.25;;;1.38;;
33170;SDS011;19535;50.672;4.206;2024-02-26T09:39:10;1.80;;;1.30;;
33170;SDS011;19535;50.672;4.206;2024-02-26T09:41:38;3.33;;;1.60;;
33170;SDS011;19535;50.672;4.206;2024-02-26T09:44:05;1.98;;;1.38;;
33170;SDS011;19535;50.672;4.206;2024-02-26T09:46:33;2.42;;;1.40;;
33170;SDS011;19535;50.672;4.206;2024-02-26T09:49:00;3.33;;;1.40;;
33170;SDS011;19535;50.672;4.206;2024-02-26T09:51:28;3.17;;;1.38;;
33170;SDS011;19535;50.672;4.206;2024-02-26T09:53:56;2.17;;;1.45;;
33170;SDS011;19535;50.672;4.206;2024-02-26T09:56:28;3.35;;;1.60;;
33170;SDS011;19535;50.672;4.206;2024-02-26T09:58:59;2.72;;;1.40;;
33170;SDS011;19535;50.672;4.206;2024-02-26T10:01:26;3.42;;;1.58;;
33170;SDS011;19535;50.672;4.206;2024-02-26T10:03:57;2.35;;;1.27;;
33170;SDS011;19535;50.672;4.206;2024-02-26T10:06:27;3.63;;;1.65;;
33170;SDS011;19535;50.672;4.206;2024-02-26T10:08:55;1.92;;;1.38;;
33170;SDS011;19535;50.672;4.206;2024-02-26T10:11:25;1.60;;;1.20;;
33170;SDS011;19535;50.672;4.206;2024-02-26T10:13:53;3.47;;;1.15;;
33170;SDS011;19535;50.672;4.206;2024-02-26T10:16:20;2.97;;;1.20;;
33170;SDS011;19535;50.672;4.206;2024-02-26T10:18:51;2.40;;;1.20;;
33170;SDS011;19535;50.672;4.206;2024-02-26T10:21:25;3.45;;;1.58;;
33170;SDS011;19535;50.672;4.206;2024-02-26T10:23:53;1.42;;;1.30;;
33170;SDS011;19535;50.672;4.206;2024-02-26T10:26:21;1.35;;;1.17;;
33170;SDS011;19535;50.672;4.206;2024-02-26T10:28:48;2.17;;;1.30;;
33170;SDS011;19535;50.672;4.206;2024-02-26T10:31:20;2.42;;;1.17;;
33170;SDS011;19535;50.672;4.206;2024-02-26T10:33:48;3.72;;;1.02;;
33170;SDS011;19535;50.672;4.206;2024-02-26T10:36:16;2.72;;;1.27;;
33170;SDS011;19535;50.672;4.206;2024-02-26T10:38:43;3.25;;;1.33;;
33170;SDS011;19535;50.672;4.206;2024-02-26T10:41:13;1.95;;;1.35;;
33170;SDS011;19535;50.672;4.206;2024-02-26T10:43:42;1.20;;;1.10;;
33170;SDS011;19535;50.672;4.206;2024-02-26T10:46:10;2.28;;;1.40;;
33170;SDS011;19535;50.672;4.206;2024-02-26T10:48:37;1.48;;;1.27;;
33170;SDS011;19535;50.672;4.206;2024-02-26T10:51:04;1.20;;;1.00;;
33170;SDS011;19535;50.672;4.206;2024-02-26T10:53:31;1.35;;;1.20;;
33170;SDS011;19535;50.672;4.206;2024-02-26T10:56:03;2.72;;;1.20;;
33170;SDS011;19535;50.672;4.206;2024-02-26T10:58:33;4.35;;;1.00;;
33170;SDS011;19535;50.672;4.206;2024-02-26T11:01:01;5.25;;;1.30;;
33170;SDS011;19535;50.672;4.206;2024-02-26T11:03:28;2.42;;;1.30;;
33170;SDS011;19535;50.672;4.206;2024-02-26T11:05:59;1.92;;;1.10;;
33170;SDS011;19535;50.672;4.206;2024-02-26T11:08:27;3.95;;;1.30;;
33170;SDS011;19535;50.672;4.206;2024-02-26T11:10:54;1.75;;;1.15;;
33170;SDS011;19535;50.672;4.206;2024-02-26T11:13:22;1.50;;;1.08;;
33170;SDS011;19535;50.672;4.206;2024-02-26T11:15:52;1.25;;;0.95;;
33170;SDS011;19535;50.672;4.206;2024-02-26T11:18:21;2.13;;;1.10;;
33170;SDS011;19535;50.672;4.206;2024-02-26T11:20:50;0.85;;;0.85;;
33170;SDS011;19535;50.672;4.206;2024-02-26T11:23:18;1.05;;;0.82;;
33170;SDS011;19535;50.672;4.206;2024-02-26T11:25:45;2.50;;;1.15;;
33170;SDS011;19535;50.672;4.206;2024-02-26T11:28:13;1.75;;;0.70;;
33170;SDS011;19535;50.672;4.206;2024-02-26T11:30:43;1.55;;;0.80;;
33170;SDS011;19535;50.672;4.206;2024-02-26T11:33:13;1.40;;;0.90;;
33170;SDS011;19535;50.672;4.206;2024-02-26T11:35:41;1.85;;;1.33;;
33170;SDS011;19535;50.672;4.206;2024-02-26T11:38:08;2.25;;;1.13;;
33170;SDS011;19535;50.672;4.206;2024-02-26T11:40:38;0.70;;;0.70;;
33170;SDS011;19535;50.672;4.206;2024-02-26T11:43:08;1.98;;;1.05;;
33170;SDS011;19535;50.672;4.206;2024-02-26T11:48:15;1.33;;;0.60;;
33170;SDS011;19535;50.672;4.206;2024-02-26T11:50:54;1.92;;;0.82;;
33170;SDS011;19535;50.672;4.206;2024-02-26T11:53:26;2.15;;;0.90;;
33170;SDS011;19535;50.672;4.206;2024-02-26T11:58:43;0.88;;;0.80;;
33170;SDS011;19535;50.672;4.206;2024-02-26T12:04:07;1.40;;;0.88;;
33170;SDS011;19535;50.672;4.206;2024-02-26T12:06:58;1.15;;;0.80;;
33170;SDS011;19535;50.672;4.206;2024-02-26T12:09:37;0.98;;;0.85;;
33170;SDS011;19535;50.672;4.206;2024-02-26T12:14:41;1.00;;;0.68;;
33170;SDS011;19535;50.672;4.206;2024-02-26T12:17:21;0.95;;;0.85;;
33170;SDS011;19535;50.672;4.206;2024-02-26T12:19:52;1.13;;;0.70;;
33170;SDS011;19535;50.672;4.206;2024-02-26T12:22:20;1.88;;;0.90;;
33170;SDS011;19535;50.672;4.206;2024-02-26T12:24:47;0.60;;;0.60;;
33170;SDS011;19535;50.672;4.206;2024-02-26T12:27:14;1.05;;;0.75;;
33170;SDS011;19535;50.672;4.206;2024-02-26T12:29:42;1.02;;;0.80;;
33170;SDS011;19535;50.672;4.206;2024-02-26T12:32:09;0.88;;;0.60;;
33170;SDS011;19535;50.672;4.206;2024-02-26T12:34:37;0.70;;;0.70;;
33170;SDS011;19535;50.672;4.206;2024-02-26T12:37:04;1.00;;;0.60;;
33170;SDS011;19535;50.672;4.206;2024-02-26T12:39:33;0.95;;;0.70;;
33170;SDS011;19535;50.672;4.206;2024-02-26T12:42:01;1.65;;;0.82;;
33170;SDS011;19535;50.672;4.206;2024-02-26T12:44:29;1.60;;;0.73;;
33170;SDS011;19535;50.672;4.206;2024-02-26T12:47:02;1.52;;;0.73;;
33170;SDS011;19535;50.672;4.206;2024-02-26T12:49:31;2.53;;;0.90;;
33170;SDS011;19535;50.672;4.206;2024-02-26T12:51:58;2.03;;;0.85;;
33170;SDS011;19535;50.672;4.206;2024-02-26T12:54:31;3.53;;;0.77;;
33170;SDS011;19535;50.672;4.206;2024-02-26T12:57:01;0.77;;;0.70;;
33170;SDS011;19535;50.672;4.206;2024-02-26T12:59:29;1.15;;;0.80;;
33170;SDS011;19535;50.672;4.206;2024-02-26T13:01:56;3.22;;;0.85;;
33170;SDS011;19535;50.672;4.206;2024-02-26T13:04:24;2.25;;;0.80;;
33170;SDS011;19535;50.672;4.206;2024-02-26T13:06:51;2.80;;;0.90;;
33170;SDS011;19535;50.672;4.206;2024-02-26T13:09:18;0.77;;;0.70;;
33170;SDS011;19535;50.672;4.206;2024-02-26T13:11:46;4.38;;;0.77;;
33170;SDS011;19535;50.672;4.206;2024-02-26T13:14:20;2.67;;;0.90;;
33170;SDS011;19535;50.672;4.206;2024-02-26T13:16:54;2.85;;;0.80;;
33170;SDS011;19535;50.672;4.206;2024-02-26T13:19:22;1.92;;;0.70;;
33170;SDS011;19535;50.672;4.206;2024-02-26T13:21:50;3.03;;;0.77;;
33170;SDS011;19535;50.672;4.206;2024-02-26T13:24:17;6.53;;;1.33;;
33170;SDS011;19535;50.672;4.206;2024-02-26T13:26:54;2.72;;;0.98;;
33170;SDS011;19535;50.672;4.206;2024-02-26T13:29:22;2.90;;;0.70;;
33170;SDS011;19535;50.672;4.206;2024-02-26T13:31:53;1.50;;;0.82;;
33170;SDS011;19535;50.672;4.206;2024-02-26T13:34:26;2.50;;;0.77;;
33170;SDS011;19535;50.672;4.206;2024-02-26T13:36:55;3.08;;;1.52;;
33170;SDS011;19535;50.672;4.206;2024-02-26T13:39:23;1.45;;;0.90;;
33170;SDS011;19535;50.672;4.206;2024-02-26T13:41:51;1.00;;;0.70;;
33170;SDS011;19535;50.672;4.206;2024-02-26T13:44:19;1.83;;;0.68;;
33170;SDS011;19535;50.672;4.206;2024-02-26T13:46:47;2.90;;;0.80;;
33170;SDS011;19535;50.672;4.206;2024-02-26T13:49:15;1.65;;;0.90;;
33170;SDS011;19535;50.672;4.206;2024-02-26T13:51:43;1.33;;;0.80;;
33170;SDS011;19535;50.672;4.206;2024-02-26T13:54:10;2.25;;;0.90;;
33170;SDS011;19535;50.672;4.206;2024-02-26T13:56:37;0.50;;;0.50;;
33170;SDS011;19535;50.672;4.206;2024-02-26T13:59:04;1.98;;;0.70;;
33170;SDS011;19535;50.672;4.206;2024-02-26T14:01:31;1.98;;;0.90;;
33170;SDS011;19535;50.672;4.206;2024-02-26T14:04:00;1.25;;;0.60;;
33170;SDS011;19535;50.672;4.206;2024-02-26T14:06:29;1.60;;;0.80;;
33170;SDS011;19535;50.672;4.206;2024-02-26T14:08:57;0.88;;;0.70;;
33170;SDS011;19535;50.672;4.206;2024-02-26T14:11:25;1.30;;;0.73;;
33170;SDS011;19535;50.672;4.206;2024-02-26T14:13:52;0.88;;;0.60;;
33170;SDS011;19535;50.672;4.206;2024-02-26T14:16:19;2.13;;;0.80;;
33170;SDS011;19535;50.672;4.206;2024-02-26T14:18:47;3.88;;;0.90;;
33170;SDS011;19535;50.672;4.206;2024-02-26T14:21:14;1.02;;;0.90;;
33170;SDS011;19535;50.672;4.206;2024-02-26T14:23:42;2.88;;;1.20;;
33170;SDS011;19535;50.672;4.206;2024-02-26T14:26:10;0.85;;;0.77;;
33170;SDS011;19535;50.672;4.206;2024-02-26T14:28:38;3.15;;;1.63;;
33170;SDS011;19535;50.672;4.206;2024-02-26T14:31:05;0.90;;;0.60;;
33170;SDS011;19535;50.672;4.206;2024-02-26T14:33:33;0.73;;;0.60;;
33170;SDS011;19535;50.672;4.206;2024-02-26T14:36:01;2.13;;;0.52;;
33170;SDS011;19535;50.672;4.206;2024-02-26T14:38:28;0.70;;;0.63;;
33170;SDS011;19535;50.672;4.206;2024-02-26T14:40:55;0.90;;;0.50;;
33170;SDS011;19535;50.672;4.206;2024-02-26T14:43:22;0.95;;;0.57;;
33170;SDS011;19535;50.672;4.206;2024-02-26T14:45:49;0.95;;;0.80;;
33170;SDS011;19535;50.672;4.206;2024-02-26T14:48:16;1.77;;;0.68;;
33170;SDS011;19535;50.672;4.206;2024-02-26T14:50:43;1.58;;;0.60;;
33170;SDS011;19535;50.672;4.206;2024-02-26T14:53:10;0.80;;;0.60;;
33170;SDS011;19535;50.672;4.206;2024-02-26T14:55:37;2.15;;;0.90;;
33170;SDS011;19535;50.672;4.206;2024-02-26T14:58:07;2.00;;;1.80;;
33170;SDS011;19535;50.672;4.206;2024-02-26T15:00:40;8.57;;;6.25;;